sensor_id;sensor_type;location;lat;lon;timestamp;temperature;humidity
7972;DHT22;4031;49.758;6.120;2023-12-20T00:01:36;4.90;99.90
7972;DHT22;4031;49.758;6.120;2023-12-20T00:04:02;4.90;99.90
7972;DHT22;4031;49.758;6.120;2023-12-20T00:06:29;4.90;99.90
7972;DHT22;4031;49.758;6.120;2023-12-20T00:08:56;4.90;99.90
7972;DHT22;4031;49.758;6.120;2023-12-20T00:11:23;4.90;99.90
7972;DHT22;4031;49.758;6.120;2023-12-20T00:13:49;4.90;99.90
7972;DHT22;4031;49.758;6.120;2023-12-20T00:16:15;4.90;99.90
7972;DHT22;4031;49.758;6.120;2023-12-20T00:18:41;4.90;99.90
7972;DHT22;4031;49.758;6.120;2023-12-20T00:21:06;4.80;99.90
7972;DHT22;4031;49.758;6.120;2023-12-20T00:23:32;4.80;99.90
7972;DHT22;4031;49.758;6.120;2023-12-20T00:25:58;4.80;99.90
7972;DHT22;4031;49.758;6.120;2023-12-20T00:28:24;4.80;99.90
7972;DHT22;4031;49.758;6.120;2023-12-20T00:30:49;4.80;99.90
7972;DHT22;4031;49.758;6.120;2023-12-20T00:33:15;4.70;99.90
7972;DHT22;4031;49.758;6.120;2023-12-20T00:35:41;4.70;99.90
7972;DHT22;4031;49.758;6.120;2023-12-20T00:38:06;4.60;99.90
7972;DHT22;4031;49.758;6.120;2023-12-20T00:40:34;4.60;99.90
7972;DHT22;4031;49.758;6.120;2023-12-20T00:43:00;4.50;99.90
7972;DHT22;4031;49.758;6.120;2023-12-20T00:45:25;4.50;99.90
7972;DHT22;4031;49.758;6.120;2023-12-20T00:47:51;4.50;99.90
7972;DHT22;4031;49.758;6.120;2023-12-20T00:50:17;4.40;99.90
7972;DHT22;4031;49.758;6.120;2023-12-20T00:52:43;4.40;99.90
7972;DHT22;4031;49.758;6.120;2023-12-20T00:55:08;4.40;99.90
7972;DHT22;4031;49.758;6.120;2023-12-20T00:57:34;4.30;99.90
7972;DHT22;4031;49.758;6.120;2023-12-20T01:00:00;4.30;99.90
7972;DHT22;4031;49.758;6.120;2023-12-20T01:02:26;4.30;99.90
7972;DHT22;4031;49.758;6.120;2023-12-20T01:04:51;4.30;99.90
7972;DHT22;4031;49.758;6.120;2023-12-20T01:07:17;4.40;99.90
7972;DHT22;4031;49.758;6.120;2023-12-20T01:09:43;4.40;99.90
7972;DHT22;4031;49.758;6.120;2023-12-20T01:12:09;4.40;99.90
7972;DHT22;4031;49.758;6.120;2023-12-20T01:14:35;4.40;99.90
7972;DHT22;4031;49.758;6.120;2023-12-20T01:17:01;4.40;99.90
7972;DHT22;4031;49.758;6.120;2023-12-20T01:19:27;4.40;99.90
7972;DHT22;4031;49.758;6.120;2023-12-20T01:21:54;4.50;99.90
7972;DHT22;4031;49.758;6.120;2023-12-20T01:24:20;4.40;99.90
7972;DHT22;4031;49.758;6.120;2023-12-20T01:26:46;4.50;99.90
7972;DHT22;4031;49.758;6.120;2023-12-20T01:29:12;4.50;99.90
7972;DHT22;4031;49.758;6.120;2023-12-20T01:31:39;4.50;99.90
7972;DHT22;4031;49.758;6.120;2023-12-20T01:34:08;4.50;99.90
7972;DHT22;4031;49.758;6.120;2023-12-20T01:36:34;4.60;99.90
7972;DHT22;4031;49.758;6.120;2023-12-20T01:38:59;4.60;99.90
7972;DHT22;4031;49.758;6.120;2023-12-20T01:41:25;4.60;99.90
7972;DHT22;4031;49.758;6.120;2023-12-20T01:43:51;4.60;99.90
7972;DHT22;4031;49.758;6.120;2023-12-20T01:46:19;4.60;99.90
7972;DHT22;4031;49.758;6.120;2023-12-20T01:48:46;4.60;99.90
7972;DHT22;4031;49.758;6.120;2023-12-20T01:51:13;4.70;99.90
7972;DHT22;4031;49.758;6.120;2023-12-20T01:53:40;4.70;99.90
7972;DHT22;4031;49.758;6.120;2023-12-20T01:56:06;4.70;99.90
7972;DHT22;4031;49.758;6.120;2023-12-20T01:58:32;4.70;99.90
7972;DHT22;4031;49.758;6.120;2023-12-20T02:00:58;4.80;99.90
7972;DHT22;4031;49.758;6.120;2023-12-20T02:03:24;4.80;99.90
7972;DHT22;4031;49.758;6.120;2023-12-20T02:05:50;4.90;99.90
7972;DHT22;4031;49.758;6.120;2023-12-20T02:08:16;4.90;99.90
7972;DHT22;4031;49.758;6.120;2023-12-20T02:10:42;4.90;99.90
7972;DHT22;4031;49.758;6.120;2023-12-20T02:13:08;4.90;99.90
7972;DHT22;4031;49.758;6.120;2023-12-20T02:15:34;4.90;99.90
7972;DHT22;4031;49.758;6.120;2023-12-20T02:18:02;4.90;99.90
7972;DHT22;4031;49.758;6.120;2023-12-20T02:20:28;4.90;99.90
7972;DHT22;4031;49.758;6.120;2023-12-20T02:22:54;4.90;99.90
7972;DHT22;4031;49.758;6.120;2023-12-20T02:25:19;4.90;99.90
7972;DHT22;4031;49.758;6.120;2023-12-20T02:27:45;4.90;99.90
7972;DHT22;4031;49.758;6.120;2023-12-20T02:30:13;4.90;99.90
7972;DHT22;4031;49.758;6.120;2023-12-20T02:32:39;4.90;99.90
7972;DHT22;4031;49.758;6.120;2023-12-20T02:35:05;4.80;99.90
7972;DHT22;4031;49.758;6.120;2023-12-20T02:37:32;4.70;99.90
7972;DHT22;4031;49.758;6.120;2023-12-20T02:39:58;4.60;99.90
7972;DHT22;4031;49.758;6.120;2023-12-20T02:42:24;4.60;99.90
7972;DHT22;4031;49.758;6.120;2023-12-20T02:44:49;4.50;99.90
7972;DHT22;4031;49.758;6.120;2023-12-20T02:47:15;4.50;99.90
7972;DHT22;4031;49.758;6.120;2023-12-20T02:49:41;4.60;99.90
7972;DHT22;4031;49.758;6.120;2023-12-20T02:52:07;4.60;99.90
7972;DHT22;4031;49.758;6.120;2023-12-20T02:54:32;4.70;99.90
7972;DHT22;4031;49.758;6.120;2023-12-20T02:56:58;4.70;99.90
7972;DHT22;4031;49.758;6.120;2023-12-20T02:59:24;4.70;99.90
7972;DHT22;4031;49.758;6.120;2023-12-20T03:01:49;4.70;99.90
7972;DHT22;4031;49.758;6.120;2023-12-20T03:04:15;4.50;99.90
7972;DHT22;4031;49.758;6.120;2023-12-20T03:06:41;4.40;99.90
7972;DHT22;4031;49.758;6.120;2023-12-20T03:09:07;4.20;99.90
7972;DHT22;4031;49.758;6.120;2023-12-20T03:11:33;4.00;99.90
7972;DHT22;4031;49.758;6.120;2023-12-20T03:13:59;4.00;99.90
7972;DHT22;4031;49.758;6.120;2023-12-20T03:16:25;3.90;99.90
7972;DHT22;4031;49.758;6.120;2023-12-20T03:18:51;3.70;99.90
7972;DHT22;4031;49.758;6.120;2023-12-20T03:21:17;3.60;99.90
7972;DHT22;4031;49.758;6.120;2023-12-20T03:23:42;3.40;99.90
7972;DHT22;4031;49.758;6.120;2023-12-20T03:26:10;3.30;99.90
7972;DHT22;4031;49.758;6.120;2023-12-20T03:28:38;3.20;99.90
7972;DHT22;4031;49.758;6.120;2023-12-20T03:31:04;3.20;99.90
7972;DHT22;4031;49.758;6.120;2023-12-20T03:33:30;3.20;99.90
7972;DHT22;4031;49.758;6.120;2023-12-20T03:35:56;3.30;99.90
7972;DHT22;4031;49.758;6.120;2023-12-20T03:38:22;3.20;99.90
7972;DHT22;4031;49.758;6.120;2023-12-20T03:40:49;3.10;99.90
7972;DHT22;4031;49.758;6.120;2023-12-20T03:43:15;3.10;99.90
7972;DHT22;4031;49.758;6.120;2023-12-20T03:45:42;3.00;99.90
7972;DHT22;4031;49.758;6.120;2023-12-20T03:48:08;2.90;99.90
7972;DHT22;4031;49.758;6.120;2023-12-20T03:50:34;2.90;99.90
7972;DHT22;4031;49.758;6.120;2023-12-20T03:53:00;2.70;99.90
7972;DHT22;4031;49.758;6.120;2023-12-20T03:55:26;2.60;99.90
7972;DHT22;4031;49.758;6.120;2023-12-20T03:57:52;2.60;99.90
7972;DHT22;4031;49.758;6.120;2023-12-20T04:00:18;2.60;99.90
7972;DHT22;4031;49.758;6.120;2023-12-20T04:02:43;2.70;99.90
7972;DHT22;4031;49.758;6.120;2023-12-20T04:05:10;2.80;99.90
7972;DHT22;4031;49.758;6.120;2023-12-20T04:07:36;2.80;99.90
7972;DHT22;4031;49.758;6.120;2023-12-20T04:10:02;2.80;99.90
7972;DHT22;4031;49.758;6.120;2023-12-20T04:12:29;2.80;99.90
7972;DHT22;4031;49.758;6.120;2023-12-20T04:14:55;2.80;99.90
7972;DHT22;4031;49.758;6.120;2023-12-20T04:17:22;2.80;99.90
7972;DHT22;4031;49.758;6.120;2023-12-20T04:19:51;2.80;99.90
7972;DHT22;4031;49.758;6.120;2023-12-20T04:22:18;2.90;99.90
7972;DHT22;4031;49.758;6.120;2023-12-20T04:24:44;2.80;99.90
7972;DHT22;4031;49.758;6.120;2023-12-20T04:27:10;2.70;99.90
7972;DHT22;4031;49.758;6.120;2023-12-20T04:29:36;2.70;99.90
7972;DHT22;4031;49.758;6.120;2023-12-20T04:32:02;2.60;99.90
7972;DHT22;4031;49.758;6.120;2023-12-20T04:34:28;2.60;99.90
7972;DHT22;4031;49.758;6.120;2023-12-20T04:36:54;2.60;99.90
7972;DHT22;4031;49.758;6.120;2023-12-20T04:39:19;2.70;99.90
7972;DHT22;4031;49.758;6.120;2023-12-20T04:41:45;2.70;99.90
7972;DHT22;4031;49.758;6.120;2023-12-20T04:44:13;2.80;99.90
7972;DHT22;4031;49.758;6.120;2023-12-20T04:46:39;3.00;99.90
7972;DHT22;4031;49.758;6.120;2023-12-20T04:49:05;3.10;99.90
7972;DHT22;4031;49.758;6.120;2023-12-20T04:51:33;3.20;99.90
7972;DHT22;4031;49.758;6.120;2023-12-20T04:53:59;3.30;99.90
7972;DHT22;4031;49.758;6.120;2023-12-20T04:56:25;3.40;99.90
7972;DHT22;4031;49.758;6.120;2023-12-20T04:58:51;3.40;99.90
7972;DHT22;4031;49.758;6.120;2023-12-20T05:01:17;3.50;99.90
7972;DHT22;4031;49.758;6.120;2023-12-20T05:03:43;3.50;99.90
7972;DHT22;4031;49.758;6.120;2023-12-20T05:06:09;3.60;99.90
7972;DHT22;4031;49.758;6.120;2023-12-20T05:08:35;3.60;99.90
7972;DHT22;4031;49.758;6.120;2023-12-20T05:11:01;3.60;99.90
7972;DHT22;4031;49.758;6.120;2023-12-20T05:13:27;3.60;99.90
7972;DHT22;4031;49.758;6.120;2023-12-20T05:15:53;3.60;99.90
7972;DHT22;4031;49.758;6.120;2023-12-20T05:18:20;3.70;99.90
7972;DHT22;4031;49.758;6.120;2023-12-20T05:20:46;3.70;99.90
7972;DHT22;4031;49.758;6.120;2023-12-20T05:23:12;3.80;99.90
7972;DHT22;4031;49.758;6.120;2023-12-20T05:25:41;3.70;99.90
7972;DHT22;4031;49.758;6.120;2023-12-20T05:28:07;3.80;99.90
7972;DHT22;4031;49.758;6.120;2023-12-20T05:30:33;3.80;99.90
7972;DHT22;4031;49.758;6.120;2023-12-20T05:32:58;3.80;99.90
7972;DHT22;4031;49.758;6.120;2023-12-20T05:35:24;3.80;99.90
7972;DHT22;4031;49.758;6.120;2023-12-20T05:37:50;3.90;99.90
7972;DHT22;4031;49.758;6.120;2023-12-20T05:40:16;3.90;99.90
7972;DHT22;4031;49.758;6.120;2023-12-20T05:42:42;4.00;99.90
7972;DHT22;4031;49.758;6.120;2023-12-20T05:45:09;4.00;99.90
7972;DHT22;4031;49.758;6.120;2023-12-20T05:47:35;3.90;99.90
7972;DHT22;4031;49.758;6.120;2023-12-20T05:50:01;3.80;99.90
7972;DHT22;4031;49.758;6.120;2023-12-20T05:52:26;3.80;99.90
7972;DHT22;4031;49.758;6.120;2023-12-20T05:54:52;3.80;99.90
7972;DHT22;4031;49.758;6.120;2023-12-20T05:57:18;3.80;99.90
7972;DHT22;4031;49.758;6.120;2023-12-20T05:59:43;3.80;99.90
7972;DHT22;4031;49.758;6.120;2023-12-20T06:02:09;3.80;99.90
7972;DHT22;4031;49.758;6.120;2023-12-20T06:04:35;3.80;99.90
7972;DHT22;4031;49.758;6.120;2023-12-20T06:07:01;3.80;99.90
7972;DHT22;4031;49.758;6.120;2023-12-20T06:09:29;3.90;99.90
7972;DHT22;4031;49.758;6.120;2023-12-20T06:11:55;3.90;99.90
7972;DHT22;4031;49.758;6.120;2023-12-20T06:14:21;3.80;99.90
7972;DHT22;4031;49.758;6.120;2023-12-20T06:16:46;3.90;99.90
7972;DHT22;4031;49.758;6.120;2023-12-20T06:19:12;3.90;99.90
7972;DHT22;4031;49.758;6.120;2023-12-20T06:21:38;3.90;99.90
7972;DHT22;4031;49.758;6.120;2023-12-20T06:24:04;3.90;99.90
7972;DHT22;4031;49.758;6.120;2023-12-20T06:26:30;4.00;99.90
7972;DHT22;4031;49.758;6.120;2023-12-20T06:28:56;4.00;99.90
7972;DHT22;4031;49.758;6.120;2023-12-20T06:31:21;4.00;99.90
7972;DHT22;4031;49.758;6.120;2023-12-20T06:33:47;4.00;99.90
7972;DHT22;4031;49.758;6.120;2023-12-20T06:36:15;4.00;99.90
7972;DHT22;4031;49.758;6.120;2023-12-20T06:38:40;4.00;99.90
7972;DHT22;4031;49.758;6.120;2023-12-20T06:41:07;4.00;99.90
7972;DHT22;4031;49.758;6.120;2023-12-20T06:43:33;4.00;99.90
7972;DHT22;4031;49.758;6.120;2023-12-20T06:46:00;4.00;99.90
7972;DHT22;4031;49.758;6.120;2023-12-20T06:48:26;4.00;99.90
7972;DHT22;4031;49.758;6.120;2023-12-20T06:50:52;4.00;99.90
7972;DHT22;4031;49.758;6.120;2023-12-20T06:53:18;3.90;99.90
7972;DHT22;4031;49.758;6.120;2023-12-20T06:55:44;4.00;99.90
7972;DHT22;4031;49.758;6.120;2023-12-20T06:58:10;4.00;99.90
7972;DHT22;4031;49.758;6.120;2023-12-20T07:00:35;4.00;99.90
7972;DHT22;4031;49.758;6.120;2023-12-20T07:03:01;4.00;99.90
7972;DHT22;4031;49.758;6.120;2023-12-20T07:05:27;4.10;99.90
7972;DHT22;4031;49.758;6.120;2023-12-20T07:07:53;4.10;99.90
7972;DHT22;4031;49.758;6.120;2023-12-20T07:10:19;4.00;99.90
7972;DHT22;4031;49.758;6.120;2023-12-20T07:12:44;4.00;99.90
7972;DHT22;4031;49.758;6.120;2023-12-20T07:15:10;4.00;99.90
7972;DHT22;4031;49.758;6.120;2023-12-20T07:17:37;4.00;99.90
7972;DHT22;4031;49.758;6.120;2023-12-20T07:20:03;4.00;99.90
7972;DHT22;4031;49.758;6.120;2023-12-20T07:22:33;4.10;99.90
7972;DHT22;4031;49.758;6.120;2023-12-20T07:24:59;4.10;99.90
7972;DHT22;4031;49.758;6.120;2023-12-20T07:27:26;4.10;99.90
7972;DHT22;4031;49.758;6.120;2023-12-20T07:29:52;4.10;99.90
7972;DHT22;4031;49.758;6.120;2023-12-20T07:32:17;4.00;99.90
7972;DHT22;4031;49.758;6.120;2023-12-20T07:34:43;4.10;99.90
7972;DHT22;4031;49.758;6.120;2023-12-20T07:37:09;4.00;99.90
7972;DHT22;4031;49.758;6.120;2023-12-20T07:39:40;4.10;99.90
7972;DHT22;4031;49.758;6.120;2023-12-20T07:42:09;4.10;99.90
7972;DHT22;4031;49.758;6.120;2023-12-20T07:44:35;4.10;99.90
7972;DHT22;4031;49.758;6.120;2023-12-20T07:47:01;4.10;99.90
7972;DHT22;4031;49.758;6.120;2023-12-20T07:49:27;4.10;99.90
7972;DHT22;4031;49.758;6.120;2023-12-20T07:51:53;4.10;99.90
7972;DHT22;4031;49.758;6.120;2023-12-20T07:54:19;4.20;99.90
7972;DHT22;4031;49.758;6.120;2023-12-20T07:56:46;4.20;99.90
7972;DHT22;4031;49.758;6.120;2023-12-20T07:59:12;4.20;99.90
7972;DHT22;4031;49.758;6.120;2023-12-20T08:01:38;4.20;99.90
7972;DHT22;4031;49.758;6.120;2023-12-20T08:04:04;4.20;99.90
7972;DHT22;4031;49.758;6.120;2023-12-20T08:06:29;4.20;99.90
7972;DHT22;4031;49.758;6.120;2023-12-20T08:08:55;4.10;99.90
7972;DHT22;4031;49.758;6.120;2023-12-20T08:11:21;4.20;99.90
7972;DHT22;4031;49.758;6.120;2023-12-20T08:13:46;4.20;99.90
7972;DHT22;4031;49.758;6.120;2023-12-20T08:16:12;4.20;99.90
7972;DHT22;4031;49.758;6.120;2023-12-20T08:18:40;4.20;99.90
7972;DHT22;4031;49.758;6.120;2023-12-20T08:21:06;4.20;99.90
7972;DHT22;4031;49.758;6.120;2023-12-20T08:23:34;4.20;99.90
7972;DHT22;4031;49.758;6.120;2023-12-20T08:26:07;4.20;99.90
7972;DHT22;4031;49.758;6.120;2023-12-20T08:28:33;4.20;99.90
7972;DHT22;4031;49.758;6.120;2023-12-20T08:31:00;4.20;99.90
7972;DHT22;4031;49.758;6.120;2023-12-20T08:33:25;4.30;99.90
7972;DHT22;4031;49.758;6.120;2023-12-20T08:35:51;4.30;99.90
7972;DHT22;4031;49.758;6.120;2023-12-20T08:38:17;4.30;99.90
7972;DHT22;4031;49.758;6.120;2023-12-20T08:40:43;4.30;99.90
7972;DHT22;4031;49.758;6.120;2023-12-20T08:43:09;4.30;99.90
7972;DHT22;4031;49.758;6.120;2023-12-20T08:45:35;4.30;99.90
7972;DHT22;4031;49.758;6.120;2023-12-20T08:48:01;4.20;99.90
7972;DHT22;4031;49.758;6.120;2023-12-20T08:50:28;4.30;99.90
7972;DHT22;4031;49.758;6.120;2023-12-20T08:52:54;4.30;99.90
7972;DHT22;4031;49.758;6.120;2023-12-20T08:55:20;4.30;99.90
7972;DHT22;4031;49.758;6.120;2023-12-20T08:57:46;4.30;99.90
7972;DHT22;4031;49.758;6.120;2023-12-20T09:00:12;4.40;99.90
7972;DHT22;4031;49.758;6.120;2023-12-20T09:02:38;4.50;99.90
7972;DHT22;4031;49.758;6.120;2023-12-20T09:05:04;4.60;99.90
7972;DHT22;4031;49.758;6.120;2023-12-20T09:07:30;4.70;99.90
7972;DHT22;4031;49.758;6.120;2023-12-20T09:09:57;4.70;99.90
7972;DHT22;4031;49.758;6.120;2023-12-20T09:12:23;4.70;99.90
7972;DHT22;4031;49.758;6.120;2023-12-20T09:14:50;4.70;99.90
7972;DHT22;4031;49.758;6.120;2023-12-20T09:17:17;4.80;99.90
7972;DHT22;4031;49.758;6.120;2023-12-20T09:19:43;4.80;99.90
7972;DHT22;4031;49.758;6.120;2023-12-20T09:22:10;4.80;99.90
7972;DHT22;4031;49.758;6.120;2023-12-20T09:24:36;4.80;99.90
7972;DHT22;4031;49.758;6.120;2023-12-20T09:27:02;4.90;99.90
7972;DHT22;4031;49.758;6.120;2023-12-20T09:29:28;4.90;99.90
7972;DHT22;4031;49.758;6.120;2023-12-20T09:31:54;5.00;99.90
7972;DHT22;4031;49.758;6.120;2023-12-20T09:34:20;5.10;99.90
7972;DHT22;4031;49.758;6.120;2023-12-20T09:36:46;5.30;99.90
7972;DHT22;4031;49.758;6.120;2023-12-20T09:39:17;5.30;99.90
7972;DHT22;4031;49.758;6.120;2023-12-20T09:42:04;5.30;99.90
7972;DHT22;4031;49.758;6.120;2023-12-20T09:44:32;5.30;99.90
7972;DHT22;4031;49.758;6.120;2023-12-20T09:47:05;5.40;99.90
7972;DHT22;4031;49.758;6.120;2023-12-20T09:49:31;5.50;99.90
7972;DHT22;4031;49.758;6.120;2023-12-20T09:52:00;5.50;99.90
7972;DHT22;4031;49.758;6.120;2023-12-20T09:54:27;5.60;99.90
7972;DHT22;4031;49.758;6.120;2023-12-20T09:56:54;5.60;99.90
7972;DHT22;4031;49.758;6.120;2023-12-20T09:59:20;5.60;99.90
7972;DHT22;4031;49.758;6.120;2023-12-20T10:01:45;5.60;99.90
7972;DHT22;4031;49.758;6.120;2023-12-20T10:04:12;5.60;99.90
7972;DHT22;4031;49.758;6.120;2023-12-20T10:06:42;5.50;99.90
7972;DHT22;4031;49.758;6.120;2023-12-20T10:09:12;5.60;99.90
7972;DHT22;4031;49.758;6.120;2023-12-20T10:11:38;5.50;99.90
7972;DHT22;4031;49.758;6.120;2023-12-20T10:14:08;5.60;99.90
7972;DHT22;4031;49.758;6.120;2023-12-20T10:16:34;5.60;99.90
7972;DHT22;4031;49.758;6.120;2023-12-20T10:19:00;5.60;99.90
7972;DHT22;4031;49.758;6.120;2023-12-20T10:21:29;5.50;99.90
7972;DHT22;4031;49.758;6.120;2023-12-20T10:23:56;5.50;99.90
7972;DHT22;4031;49.758;6.120;2023-12-20T10:26:26;5.40;99.90
7972;DHT22;4031;49.758;6.120;2023-12-20T10:29:10;5.40;99.90
7972;DHT22;4031;49.758;6.120;2023-12-20T10:31:36;5.50;99.90
7972;DHT22;4031;49.758;6.120;2023-12-20T10:34:04;5.50;99.90
7972;DHT22;4031;49.758;6.120;2023-12-20T10:36:32;5.60;99.90
7972;DHT22;4031;49.758;6.120;2023-12-20T10:38:58;5.60;99.90
7972;DHT22;4031;49.758;6.120;2023-12-20T10:41:30;5.60;99.90
7972;DHT22;4031;49.758;6.120;2023-12-20T10:44:02;5.60;99.90
7972;DHT22;4031;49.758;6.120;2023-12-20T10:46:29;5.70;99.90
7972;DHT22;4031;49.758;6.120;2023-12-20T10:49:01;5.80;99.90
7972;DHT22;4031;49.758;6.120;2023-12-20T10:51:28;5.60;99.90
7972;DHT22;4031;49.758;6.120;2023-12-20T10:53:56;5.80;99.90
7972;DHT22;4031;49.758;6.120;2023-12-20T10:56:22;5.80;99.90
7972;DHT22;4031;49.758;6.120;2023-12-20T10:58:50;5.90;99.90
7972;DHT22;4031;49.758;6.120;2023-12-20T11:01:19;5.90;99.90
7972;DHT22;4031;49.758;6.120;2023-12-20T11:03:51;6.00;99.90
7972;DHT22;4031;49.758;6.120;2023-12-20T11:06:40;6.00;99.90
7972;DHT22;4031;49.758;6.120;2023-12-20T11:09:49;6.10;99.90
7972;DHT22;4031;49.758;6.120;2023-12-20T11:12:45;6.20;99.90
7972;DHT22;4031;49.758;6.120;2023-12-20T11:15:14;6.20;99.90
7972;DHT22;4031;49.758;6.120;2023-12-20T11:17:44;6.20;99.90
7972;DHT22;4031;49.758;6.120;2023-12-20T11:20:11;6.20;99.90
7972;DHT22;4031;49.758;6.120;2023-12-20T11:22:40;6.20;99.90
7972;DHT22;4031;49.758;6.120;2023-12-20T11:25:17;6.10;99.90
7972;DHT22;4031;49.758;6.120;2023-12-20T11:27:43;6.10;99.90
7972;DHT22;4031;49.758;6.120;2023-12-20T11:30:09;6.30;99.90
7972;DHT22;4031;49.758;6.120;2023-12-20T11:32:36;6.50;99.90
7972;DHT22;4031;49.758;6.120;2023-12-20T11:37:38;6.50;99.90
7972;DHT22;4031;49.758;6.120;2023-12-20T11:40:15;6.40;99.90
7972;DHT22;4031;49.758;6.120;2023-12-20T11:42:48;6.50;99.90
7972;DHT22;4031;49.758;6.120;2023-12-20T11:45:19;6.40;99.90
7972;DHT22;4031;49.758;6.120;2023-12-20T11:47:48;6.50;99.90
7972;DHT22;4031;49.758;6.120;2023-12-20T11:50:20;6.60;99.90
7972;DHT22;4031;49.758;6.120;2023-12-20T11:52:48;6.60;99.90
7972;DHT22;4031;49.758;6.120;2023-12-20T11:55:14;6.50;99.90
7972;DHT22;4031;49.758;6.120;2023-12-20T11:57:40;6.30;99.90
7972;DHT22;4031;49.758;6.120;2023-12-20T12:00:07;6.20;99.90
7972;DHT22;4031;49.758;6.120;2023-12-20T12:02:34;6.20;99.90
7972;DHT22;4031;49.758;6.120;2023-12-20T12:05:00;6.10;99.90
7972;DHT22;4031;49.758;6.120;2023-12-20T12:07:25;6.20;99.90
7972;DHT22;4031;49.758;6.120;2023-12-20T12:09:51;6.10;99.90
7972;DHT22;4031;49.758;6.120;2023-12-20T12:12:17;6.00;99.90
7972;DHT22;4031;49.758;6.120;2023-12-20T12:14:45;6.00;99.90
7972;DHT22;4031;49.758;6.120;2023-12-20T12:17:14;6.00;99.90
7972;DHT22;4031;49.758;6.120;2023-12-20T12:19:41;6.00;99.90
7972;DHT22;4031;49.758;6.120;2023-12-20T12:22:09;6.10;99.90
7972;DHT22;4031;49.758;6.120;2023-12-20T12:24:43;6.10;99.90
7972;DHT22;4031;49.758;6.120;2023-12-20T12:27:10;6.10;99.90
7972;DHT22;4031;49.758;6.120;2023-12-20T12:29:36;6.10;99.90
7972;DHT22;4031;49.758;6.120;2023-12-20T12:32:06;6.20;99.90
7972;DHT22;4031;49.758;6.120;2023-12-20T12:34:33;6.40;99.90
7972;DHT22;4031;49.758;6.120;2023-12-20T12:37:00;6.50;99.90
7972;DHT22;4031;49.758;6.120;2023-12-20T12:39:26;6.60;99.90
7972;DHT22;4031;49.758;6.120;2023-12-20T12:41:53;6.60;99.90
7972;DHT22;4031;49.758;6.120;2023-12-20T12:44:19;6.50;99.90
7972;DHT22;4031;49.758;6.120;2023-12-20T12:46:48;6.50;99.90
7972;DHT22;4031;49.758;6.120;2023-12-20T12:49:16;6.50;99.90
7972;DHT22;4031;49.758;6.120;2023-12-20T12:51:43;6.60;99.90
7972;DHT22;4031;49.758;6.120;2023-12-20T12:54:09;6.60;99.90
7972;DHT22;4031;49.758;6.120;2023-12-20T12:56:36;6.60;99.90
7972;DHT22;4031;49.758;6.120;2023-12-20T12:59:02;6.60;99.90
7972;DHT22;4031;49.758;6.120;2023-12-20T13:01:28;6.50;99.90
7972;DHT22;4031;49.758;6.120;2023-12-20T13:03:54;6.40;99.90
7972;DHT22;4031;49.758;6.120;2023-12-20T13:06:20;6.20;99.90
7972;DHT22;4031;49.758;6.120;2023-12-20T13:08:46;6.10;99.90
7972;DHT22;4031;49.758;6.120;2023-12-20T13:11:11;6.10;99.90
7972;DHT22;4031;49.758;6.120;2023-12-20T13:13:37;6.10;99.90
7972;DHT22;4031;49.758;6.120;2023-12-20T13:16:03;6.00;99.90
7972;DHT22;4031;49.758;6.120;2023-12-20T13:18:29;6.00;99.90
7972;DHT22;4031;49.758;6.120;2023-12-20T13:20:55;5.90;99.90
7972;DHT22;4031;49.758;6.120;2023-12-20T13:23:20;5.90;99.90
7972;DHT22;4031;49.758;6.120;2023-12-20T13:25:46;5.90;99.90
7972;DHT22;4031;49.758;6.120;2023-12-20T13:28:12;6.00;99.90
7972;DHT22;4031;49.758;6.120;2023-12-20T13:30:38;6.00;99.90
7972;DHT22;4031;49.758;6.120;2023-12-20T13:33:05;6.00;99.90
7972;DHT22;4031;49.758;6.120;2023-12-20T13:35:31;6.00;99.90
7972;DHT22;4031;49.758;6.120;2023-12-20T13:37:58;6.10;99.90
7972;DHT22;4031;49.758;6.120;2023-12-20T13:40:24;6.10;99.90
7972;DHT22;4031;49.758;6.120;2023-12-20T13:42:50;6.00;99.90
7972;DHT22;4031;49.758;6.120;2023-12-20T13:45:16;6.00;99.90
7972;DHT22;4031;49.758;6.120;2023-12-20T13:47:42;6.00;99.90
7972;DHT22;4031;49.758;6.120;2023-12-20T13:50:08;6.00;99.90
7972;DHT22;4031;49.758;6.120;2023-12-20T13:52:34;6.00;99.90
7972;DHT22;4031;49.758;6.120;2023-12-20T13:55:01;6.00;99.90
7972;DHT22;4031;49.758;6.120;2023-12-20T13:57:27;6.00;99.90
7972;DHT22;4031;49.758;6.120;2023-12-20T13:59:55;6.10;99.90
7972;DHT22;4031;49.758;6.120;2023-12-20T14:02:23;6.00;99.90
7972;DHT22;4031;49.758;6.120;2023-12-20T14:04:48;6.00;99.90
7972;DHT22;4031;49.758;6.120;2023-12-20T14:07:14;6.00;99.90
7972;DHT22;4031;49.758;6.120;2023-12-20T14:09:41;6.00;99.90
7972;DHT22;4031;49.758;6.120;2023-12-20T14:12:11;6.00;99.90
7972;DHT22;4031;49.758;6.120;2023-12-20T14:14:37;5.90;99.90
7972;DHT22;4031;49.758;6.120;2023-12-20T14:17:03;5.90;99.90
7972;DHT22;4031;49.758;6.120;2023-12-20T14:19:30;5.80;99.90
7972;DHT22;4031;49.758;6.120;2023-12-20T14:21:56;5.80;99.90
7972;DHT22;4031;49.758;6.120;2023-12-20T14:24:21;5.70;99.90
7972;DHT22;4031;49.758;6.120;2023-12-20T14:26:47;5.70;99.90
7972;DHT22;4031;49.758;6.120;2023-12-20T14:29:13;5.70;99.90
7972;DHT22;4031;49.758;6.120;2023-12-20T14:31:38;5.70;99.90
7972;DHT22;4031;49.758;6.120;2023-12-20T14:34:06;5.70;99.90
7972;DHT22;4031;49.758;6.120;2023-12-20T14:36:32;5.70;99.90
7972;DHT22;4031;49.758;6.120;2023-12-20T14:38:57;5.70;99.90
7972;DHT22;4031;49.758;6.120;2023-12-20T14:41:23;5.70;99.90
7972;DHT22;4031;49.758;6.120;2023-12-20T14:43:50;5.70;99.90
7972;DHT22;4031;49.758;6.120;2023-12-20T14:46:19;5.70;99.90
7972;DHT22;4031;49.758;6.120;2023-12-20T14:48:45;5.70;99.90
7972;DHT22;4031;49.758;6.120;2023-12-20T14:51:11;5.70;99.90
7972;DHT22;4031;49.758;6.120;2023-12-20T14:53:38;5.70;99.90
7972;DHT22;4031;49.758;6.120;2023-12-20T14:56:04;5.70;99.90
7972;DHT22;4031;49.758;6.120;2023-12-20T14:58:31;5.70;99.90
7972;DHT22;4031;49.758;6.120;2023-12-20T15:00:57;5.70;99.90
7972;DHT22;4031;49.758;6.120;2023-12-20T15:03:24;5.70;99.90
7972;DHT22;4031;49.758;6.120;2023-12-20T15:05:49;5.70;99.90
7972;DHT22;4031;49.758;6.120;2023-12-20T15:08:15;5.80;99.90
7972;DHT22;4031;49.758;6.120;2023-12-20T15:10:41;5.80;99.90
7972;DHT22;4031;49.758;6.120;2023-12-20T15:13:07;5.80;99.90
7972;DHT22;4031;49.758;6.120;2023-12-20T15:15:33;5.80;99.90
7972;DHT22;4031;49.758;6.120;2023-12-20T15:17:59;5.80;99.90
7972;DHT22;4031;49.758;6.120;2023-12-20T15:20:26;5.80;99.90
7972;DHT22;4031;49.758;6.120;2023-12-20T15:22:52;5.80;99.90
7972;DHT22;4031;49.758;6.120;2023-12-20T15:25:18;5.80;99.90
7972;DHT22;4031;49.758;6.120;2023-12-20T15:27:48;5.80;99.90
7972;DHT22;4031;49.758;6.120;2023-12-20T15:30:19;5.80;99.90
7972;DHT22;4031;49.758;6.120;2023-12-20T15:32:45;5.80;99.90
7972;DHT22;4031;49.758;6.120;2023-12-20T15:35:11;5.80;99.90
7972;DHT22;4031;49.758;6.120;2023-12-20T15:37:38;5.80;99.90
7972;DHT22;4031;49.758;6.120;2023-12-20T15:40:07;5.80;99.90
7972;DHT22;4031;49.758;6.120;2023-12-20T15:42:35;5.80;99.90
7972;DHT22;4031;49.758;6.120;2023-12-20T15:45:03;5.80;99.90
7972;DHT22;4031;49.758;6.120;2023-12-20T15:47:29;5.80;99.90
7972;DHT22;4031;49.758;6.120;2023-12-20T15:49:55;5.80;99.90
7972;DHT22;4031;49.758;6.120;2023-12-20T15:52:20;5.80;99.90
7972;DHT22;4031;49.758;6.120;2023-12-20T15:54:46;5.90;99.90
7972;DHT22;4031;49.758;6.120;2023-12-20T15:57:13;5.80;99.90
7972;DHT22;4031;49.758;6.120;2023-12-20T15:59:41;5.90;99.90
7972;DHT22;4031;49.758;6.120;2023-12-20T16:02:07;5.80;99.90
7972;DHT22;4031;49.758;6.120;2023-12-20T16:04:33;5.80;99.90
7972;DHT22;4031;49.758;6.120;2023-12-20T16:06:58;5.80;99.90
7972;DHT22;4031;49.758;6.120;2023-12-20T16:09:24;5.90;99.90
7972;DHT22;4031;49.758;6.120;2023-12-20T16:11:50;5.90;99.90
7972;DHT22;4031;49.758;6.120;2023-12-20T16:14:16;5.90;99.90
7972;DHT22;4031;49.758;6.120;2023-12-20T16:16:45;5.90;99.90